createdAt,value
2022-09-17T00:00:50.040Z,98315.34
2022-09-17T00:03:17.228Z,98305.31
2022-09-17T00:05:44.384Z,98299.94
2022-09-17T00:08:14.922Z,98296.72
2022-09-17T00:10:44.393Z,98296.13
2022-09-17T00:13:11.861Z,98299.97
2022-09-17T00:15:43.535Z,98304.81
2022-09-17T00:18:10.866Z,98309.59
2022-09-17T00:20:42.885Z,98302.31
2022-09-17T00:23:10.315Z,98303.34
2022-09-17T00:25:45.549Z,98305.38
2022-09-17T00:28:13.926Z,98306.53
2022-09-17T00:30:41.938Z,98310.25
2022-09-17T00:33:09.310Z,98309.00
2022-09-17T00:35:35.758Z,98316.81
2022-09-17T00:38:02.278Z,98316.53
2022-09-17T00:40:28.910Z,98311.50
2022-09-17T00:42:55.458Z,98322.22
2022-09-17T00:45:22.887Z,98320.53
2022-09-17T00:48:00.038Z,98317.22
2022-09-17T00:50:32.347Z,98318.59
2022-09-17T00:53:15.332Z,98324.78
2022-09-17T00:55:48.599Z,98320.44
2022-09-17T00:58:18.885Z,98331.97
2022-09-17T01:00:47.377Z,98327.72
2022-09-17T01:03:14.464Z,98342.00
2022-09-17T01:06:05.720Z,98336.00
2022-09-17T01:08:59.743Z,98341.16
2022-09-17T01:12:09.351Z,98342.81
2022-09-17T01:14:53.985Z,98339.31
2022-09-17T01:17:42.897Z,98343.59
2022-09-17T01:20:31.179Z,98349.56
2022-09-17T01:23:02.854Z,98352.88
2022-09-17T01:25:58.445Z,98349.66
2022-09-17T01:28:24.811Z,98348.84
2022-09-17T01:31:12.938Z,98361.81
2022-09-17T01:33:52.687Z,98361.47
2022-09-17T01:36:31.397Z,98371.19
2022-09-17T01:39:03.708Z,98359.84
2022-09-17T01:41:33.111Z,98364.38
2022-09-17T01:44:07.512Z,98359.78
2022-09-17T01:46:43.688Z,98365.97
2022-09-17T01:49:12.776Z,98371.38
2022-09-17T01:51:43.661Z,98375.16
2022-09-17T01:54:27.915Z,98368.44
2022-09-17T01:57:36.356Z,98374.44
2022-09-17T02:00:08.574Z,98372.78
2022-09-17T02:02:44.986Z,98369.56
2022-09-17T02:05:18.474Z,98375.91
2022-09-17T02:07:55.895Z,98379.69
2022-09-17T02:10:27.347Z,98382.09
2022-09-17T02:12:58.968Z,98385.59
2022-09-17T02:15:31.933Z,98389.91
2022-09-17T02:18:06.945Z,98386.13
2022-09-17T02:20:42.502Z,98394.25
2022-09-17T02:23:17.657Z,98390.47
2022-09-17T02:26:00.653Z,98393.06
2022-09-17T02:28:50.030Z,98389.78
2022-09-17T02:31:16.829Z,98395.00
2022-09-17T02:33:47.501Z,98390.72
2022-09-17T02:36:14.189Z,98396.03
2022-09-17T02:38:43.736Z,98397.34
2022-09-17T02:41:18.413Z,98390.94
2022-09-17T02:43:53.298Z,98385.47
2022-09-17T02:46:39.916Z,98397.34
2022-09-17T02:49:39.979Z,98387.09
2022-09-17T02:52:24.942Z,98389.53
2022-09-17T02:55:12.102Z,98384.34
2022-09-17T02:57:46.736Z,98389.69
2022-09-17T03:00:21.770Z,98389.72
2022-09-17T03:03:00.247Z,98397.69
2022-09-17T03:05:29.162Z,98404.47
2022-09-17T03:07:57.177Z,98399.09
2022-09-17T03:10:23.721Z,98398.44
2022-09-17T03:12:51.524Z,98396.84
2022-09-17T03:15:17.960Z,98391.97
2022-09-17T03:17:44.423Z,98389.31
2022-09-17T03:20:10.893Z,98387.66
2022-09-17T03:22:37.401Z,98385.47
2022-09-17T03:25:04.213Z,98383.69
2022-09-17T03:27:30.603Z,98395.34
2022-09-17T03:29:57.029Z,98396.88
2022-09-17T03:32:23.507Z,98397.97
2022-09-17T03:34:49.937Z,98385.97
2022-09-17T03:37:16.718Z,98385.13
2022-09-17T03:39:43.176Z,98394.53
2022-09-17T03:42:09.605Z,98395.53
2022-09-17T03:44:36.097Z,98398.81
2022-09-17T03:47:02.489Z,98396.34
2022-09-17T03:49:28.969Z,98397.06
2022-09-17T03:51:55.487Z,98394.38
2022-09-17T03:54:22.155Z,98394.13
2022-09-17T03:56:48.636Z,98395.25
2022-09-17T03:59:15.211Z,98391.03
2022-09-17T04:01:41.823Z,98392.13
2022-09-17T04:04:08.348Z,98391.06
2022-09-17T04:06:34.961Z,98400.00
2022-09-17T04:09:03.759Z,98392.66
2022-09-17T04:11:30.237Z,98400.63
2022-09-17T04:13:56.851Z,98406.16
2022-09-17T04:16:23.591Z,98399.47
2022-09-17T04:18:50.160Z,98409.22
2022-09-17T04:21:16.614Z,98418.78
2022-09-17T04:23:43.036Z,98425.84
2022-09-17T04:26:09.458Z,98439.38
2022-09-17T04:28:35.909Z,98438.56
2022-09-17T04:31:02.392Z,98428.47
2022-09-17T04:33:28.837Z,98431.09
2022-09-17T04:35:55.330Z,98429.22
2022-09-17T04:38:22.164Z,98434.34
2022-09-17T04:40:48.858Z,98443.94
2022-09-17T04:43:15.459Z,98441.00
2022-09-17T04:45:41.905Z,98443.94
2022-09-17T04:48:08.857Z,98443.63
2022-09-17T04:50:35.321Z,98445.69
2022-09-17T04:53:01.764Z,98446.91
2022-09-17T04:55:28.234Z,98448.84
2022-09-17T04:57:54.747Z,98457.22
2022-09-17T05:00:23.316Z,98450.81
2022-09-17T05:02:52.256Z,98457.34
2022-09-17T05:05:19.565Z,98451.16
2022-09-17T05:07:46.133Z,98456.34
2022-09-17T05:10:14.621Z,98454.38
2022-09-17T05:12:41.117Z,98457.22
2022-09-17T05:15:08.127Z,98460.91
2022-09-17T05:17:34.631Z,98454.53
2022-09-17T05:20:01.883Z,98464.69
2022-09-17T05:22:28.286Z,98459.38
2022-09-17T05:24:54.714Z,98469.31
2022-09-17T05:27:21.159Z,98473.28
2022-09-17T05:29:47.597Z,98468.88
2022-09-17T05:32:14.060Z,98471.75
2022-09-17T05:34:41.473Z,98470.66
2022-09-17T05:37:11.192Z,98476.63
2022-09-17T05:39:37.663Z,98492.50
2022-09-17T05:42:04.194Z,98495.31
2022-09-17T05:44:30.631Z,98489.50
2022-09-17T05:46:57.136Z,98491.47
2022-09-17T05:49:23.627Z,98490.81
2022-09-17T05:51:51.592Z,98496.22
2022-09-17T05:54:18.069Z,98501.38
2022-09-17T05:56:44.474Z,98495.34
2022-09-17T05:59:10.898Z,98490.16
2022-09-17T06:01:37.327Z,98492.97
2022-09-17T06:04:04.569Z,98492.47
2022-09-17T06:06:31.041Z,98494.84
2022-09-17T06:09:00.991Z,98502.66
2022-09-17T06:11:28.574Z,98496.47
2022-09-17T06:13:55.719Z,98494.03
2022-09-17T06:16:24.405Z,98497.97
2022-09-17T06:18:56.922Z,98501.41
2022-09-17T06:21:23.650Z,98516.63
2022-09-17T06:23:50.654Z,98519.72
2022-09-17T06:26:18.105Z,98531.59
2022-09-17T06:28:45.236Z,98537.25
2022-09-17T06:31:13.578Z,98547.97
2022-09-17T06:33:40.749Z,98547.91
2022-09-17T06:36:13.759Z,98548.22
2022-09-17T06:38:41.436Z,98547.78
2022-09-17T06:41:08.198Z,98548.53
2022-09-17T06:43:35.367Z,98550.09
2022-09-17T06:46:05.971Z,98552.72
2022-09-17T06:48:34.588Z,98555.31
2022-09-17T06:51:10.341Z,98557.31
2022-09-17T06:53:40.097Z,98563.06
2022-09-17T06:56:09.661Z,98566.09
2022-09-17T06:58:37.352Z,98570.00
2022-09-17T07:01:05.512Z,98567.09
2022-09-17T07:03:32.879Z,98563.69
2022-09-17T07:05:59.302Z,98565.59
2022-09-17T07:08:28.663Z,98575.03
2022-09-17T07:10:56.572Z,98581.47
2022-09-17T07:13:23.611Z,98571.78
2022-09-17T07:16:09.418Z,98571.94
2022-09-17T07:18:36.969Z,98569.41
2022-09-17T07:21:05.870Z,98571.50
2022-09-17T07:23:34.742Z,98576.03
2022-09-17T07:26:03.966Z,98586.50
2022-09-17T07:28:30.539Z,98587.66
2022-09-17T07:30:57.251Z,98573.28
2022-09-17T07:33:26.281Z,98587.41
2022-09-17T07:36:00.928Z,98574.97
2022-09-17T07:38:28.922Z,98573.06
2022-09-17T07:41:00.433Z,98581.72
2022-09-17T07:43:28.682Z,98579.00
2022-09-17T07:45:57.981Z,98582.28
2022-09-17T07:48:25.763Z,98584.44
2022-09-17T07:50:52.574Z,98586.00
2022-09-17T07:53:19.344Z,98594.66
2022-09-17T07:55:57.217Z,98598.50
2022-09-17T07:58:28.717Z,98595.19
2022-09-17T08:01:10.633Z,98595.34
2022-09-17T08:03:39.585Z,98592.78
2022-09-17T08:06:08.894Z,98593.03
2022-09-17T08:08:36.700Z,98584.16
2022-09-17T08:11:11.330Z,98569.31
2022-09-17T08:13:38.519Z,98586.06
2022-09-17T08:16:08.727Z,98577.97
2022-09-17T08:18:35.836Z,98573.88
2022-09-17T08:21:04.890Z,98580.81
2022-09-17T08:23:33.948Z,98581.31
2022-09-17T08:26:00.570Z,98582.81
2022-09-17T08:28:29.687Z,98590.78
2022-09-17T08:31:01.005Z,98589.66
2022-09-17T08:33:31.169Z,98601.19
2022-09-17T08:35:59.594Z,98600.22
2022-09-17T08:38:37.207Z,98599.31
2022-09-17T08:41:10.463Z,98596.91
2022-09-17T08:43:58.672Z,98591.06
2022-09-17T08:46:26.390Z,98598.81
2022-09-17T08:48:58.976Z,98593.47
2022-09-17T08:51:54.340Z,98598.94
2022-09-17T08:54:38.959Z,98601.41
2022-09-17T08:57:25.164Z,98610.28
2022-09-17T09:00:03.329Z,98606.41
2022-09-17T09:02:39.615Z,98601.41
2022-09-17T09:05:22.746Z,98606.28
2022-09-17T09:08:02.009Z,98614.97
2022-09-17T09:10:37.940Z,98612.66
2022-09-17T09:13:04.713Z,98621.03
2022-09-17T09:16:06.241Z,98622.78
2022-09-17T09:18:38.856Z,98619.34
2022-09-17T09:21:27.608Z,98627.31
2022-09-17T09:23:56.794Z,98634.16
2022-09-17T09:26:46.971Z,98628.94
2022-09-17T09:29:28.825Z,98626.03
2022-09-17T09:32:03.145Z,98625.09
2022-09-17T09:34:30.097Z,98626.19
2022-09-17T09:37:11.999Z,98627.78
2022-09-17T09:39:45.727Z,98637.19
2022-09-17T09:42:33.526Z,98632.97
2022-09-17T09:45:05.236Z,98627.16
2022-09-17T09:48:00.386Z,98626.59
2022-09-17T09:51:10.618Z,98633.03
2022-09-17T09:54:01.819Z,98632.84
2022-09-17T09:56:51.214Z,98621.72
2022-09-17T09:59:19.457Z,98625.59
2022-09-17T10:01:46.418Z,98623.97
2022-09-17T10:04:23.710Z,98630.16
2022-09-17T10:06:53.388Z,98630.50
2022-09-17T10:09:22.295Z,98647.28
2022-09-17T10:12:15.253Z,98646.41
2022-09-17T10:14:43.398Z,98642.38
2022-09-17T10:17:20.791Z,98639.16
2022-09-17T10:20:02.238Z,98636.47
2022-09-17T10:22:40.180Z,98633.25
2022-09-17T10:25:32.329Z,98629.59
2022-09-17T10:28:02.023Z,98630.97
2022-09-17T10:30:28.590Z,98625.91
2022-09-17T10:33:19.650Z,98631.75
2022-09-17T10:36:14.682Z,98639.28
2022-09-17T10:38:43.213Z,98626.75
2022-09-17T10:41:09.614Z,98636.41
2022-09-17T10:43:36.272Z,98636.34
2022-09-17T10:46:03.462Z,98627.47
2022-09-17T10:48:39.915Z,98637.47
2022-09-17T10:51:08.875Z,98633.91
2022-09-17T10:53:59.005Z,98633.63
2022-09-17T10:56:36.331Z,98630.50
2022-09-17T10:59:25.985Z,98632.91
2022-09-17T11:02:10.630Z,98635.34
2022-09-17T11:05:02.677Z,98624.25
2022-09-17T11:07:47.864Z,98624.28
2022-09-17T11:10:25.052Z,98628.69
2022-09-17T11:13:12.818Z,98630.97
2022-09-17T11:16:35.521Z,98628.44
2022-09-17T11:19:21.171Z,98628.16
2022-09-17T11:22:05.603Z,98625.31
2022-09-17T11:24:56.987Z,98621.38
2022-09-17T11:27:28.146Z,98622.47
2022-09-17T11:30:08.068Z,98618.69
2022-09-17T11:33:00.740Z,98623.41
2022-09-17T11:35:49.513Z,98619.78
2022-09-17T11:38:49.170Z,98623.75
2022-09-17T11:41:33.197Z,98623.06
2022-09-17T11:44:28.374Z,98611.81
2022-09-17T11:47:02.601Z,98615.44
2022-09-17T11:50:03.070Z,98610.72
2022-09-17T11:52:34.946Z,98618.31
2022-09-17T11:55:21.331Z,98608.66
2022-09-17T11:57:51.646Z,98617.88
2022-09-17T12:00:24.609Z,98606.56
2022-09-17T12:03:00.373Z,98621.44
2022-09-17T12:05:40.310Z,98621.75
2022-09-17T12:08:29.164Z,98615.50
2022-09-17T12:11:13.109Z,98618.34
2022-09-17T12:13:46.764Z,98612.84
2022-09-17T12:16:21.999Z,98617.34
2022-09-17T12:18:55.206Z,98620.75
2022-09-17T12:21:30.508Z,98613.25
2022-09-17T12:23:56.915Z,98606.63
2022-09-17T12:26:49.210Z,98612.88
2022-09-17T12:29:34.424Z,98614.34
2022-09-17T12:32:21.097Z,98612.94
2022-09-17T12:34:53.576Z,98610.63
2022-09-17T12:37:47.797Z,98604.22
2022-09-17T12:40:26.445Z,98620.50
2022-09-17T12:42:58.442Z,98613.34
2022-09-17T12:45:50.607Z,98622.47
2022-09-17T12:48:24.799Z,98625.06
2022-09-17T12:51:09.858Z,98629.34
2022-09-17T12:53:40.862Z,98630.47
2022-09-17T12:56:13.160Z,98622.69
2022-09-17T12:59:08.956Z,98623.28
2022-09-17T13:01:58.608Z,98626.06
2022-09-17T13:05:00.648Z,98629.34
2022-09-17T13:07:51.315Z,98627.88
2022-09-17T13:10:39.022Z,98622.84
2022-09-17T13:13:14.875Z,98623.50
2022-09-17T13:15:53.614Z,98615.25
2022-09-17T13:18:31.870Z,98620.13
2022-09-17T13:21:14.119Z,98611.75
2022-09-17T13:23:44.676Z,98607.22
2022-09-17T13:26:14.769Z,98601.66
2022-09-17T13:28:47.479Z,98596.94
2022-09-17T13:31:20.966Z,98590.25
2022-09-17T13:33:53.625Z,98595.28
2022-09-17T13:36:56.822Z,98603.22
2022-09-17T13:39:50.673Z,98606.81
2022-09-17T13:42:30.115Z,98608.16
2022-09-17T13:45:13.205Z,98594.66
2022-09-17T13:47:51.076Z,98602.00
2022-09-17T13:50:28.361Z,98611.47
2022-09-17T13:52:58.012Z,98614.44
2022-09-17T13:55:35.025Z,98608.44
2022-09-17T13:58:09.521Z,98621.47
2022-09-17T14:00:58.930Z,98610.75
2022-09-17T14:03:28.540Z,98616.19
2022-09-17T14:05:55.714Z,98613.88
2022-09-17T14:08:31.061Z,98613.38
2022-09-17T14:11:00.476Z,98613.94
2022-09-17T14:13:35.745Z,98612.03
2022-09-17T14:16:02.719Z,98610.59
2022-09-17T14:18:29.184Z,98616.66
2022-09-17T14:21:05.826Z,98613.09
2022-09-17T14:23:35.216Z,98610.34
2022-09-17T14:26:08.165Z,98609.91
2022-09-17T14:29:02.411Z,98610.94
2022-09-17T14:31:35.817Z,98610.47
2022-09-17T14:34:06.831Z,98611.00
2022-09-17T14:36:38.351Z,98603.16
2022-09-17T14:39:13.134Z,98610.25
2022-09-17T14:41:41.954Z,98600.13
2022-09-17T14:44:17.473Z,98602.59
2022-09-17T14:46:52.847Z,98607.97
2022-09-17T14:49:26.285Z,98602.00
2022-09-17T14:51:57.595Z,98602.28
2022-09-17T14:54:33.623Z,98601.09
2022-09-17T14:57:17.327Z,98605.47
2022-09-17T14:59:49.436Z,98607.41
2022-09-17T15:02:28.934Z,98612.00
2022-09-17T15:04:56.122Z,98601.16
2022-09-17T15:07:23.751Z,98604.06
2022-09-17T15:09:55.373Z,98605.09
2022-09-17T15:12:29.774Z,98615.16
2022-09-17T15:14:58.831Z,98607.63
2022-09-17T15:17:25.501Z,98612.56
2022-09-17T15:19:56.687Z,98613.66
2022-09-17T15:22:27.816Z,98615.22
2022-09-17T15:24:59.977Z,98611.94
2022-09-17T15:27:31.717Z,98611.50
2022-09-17T15:30:03.345Z,98614.75
2022-09-17T15:32:30.343Z,98608.03
2022-09-17T15:35:18.154Z,98611.56
2022-09-17T15:38:05.727Z,98612.34
2022-09-17T15:40:41.239Z,98611.81
2022-09-17T15:43:28.153Z,98607.19
2022-09-17T15:45:55.240Z,98611.78
2022-09-17T15:48:27.838Z,98626.66
2022-09-17T15:50:56.794Z,98629.38
2022-09-17T15:53:25.022Z,98638.84
2022-09-17T15:56:05.291Z,98633.41
2022-09-17T15:58:37.771Z,98633.13
2022-09-17T16:01:16.625Z,98642.81
2022-09-17T16:03:46.479Z,98641.72
2022-09-17T16:06:18.747Z,98640.13
2022-09-17T16:08:53.538Z,98634.19
2022-09-17T16:11:25.427Z,98634.41
2022-09-17T16:13:54.132Z,98646.59
2022-09-17T16:16:23.060Z,98651.50
2022-09-17T16:18:50.670Z,98649.06
2022-09-17T16:21:19.213Z,98659.09
2022-09-17T16:23:46.730Z,98656.38
2022-09-17T16:26:23.447Z,98653.94
2022-09-17T16:28:53.747Z,98663.44
2022-09-17T16:31:20.876Z,98655.31
2022-09-17T16:33:47.425Z,98655.56
2022-09-17T16:36:16.768Z,98665.53
2022-09-17T16:38:43.320Z,98660.13
2022-09-17T16:41:10.067Z,98673.72
2022-09-17T16:43:38.403Z,98676.44
2022-09-17T16:46:07.343Z,98671.88
2022-09-17T16:48:34.333Z,98685.91
2022-09-17T16:51:06.281Z,98674.50
2022-09-17T16:53:34.586Z,98673.88
2022-09-17T16:56:01.272Z,98677.09
2022-09-17T16:58:27.685Z,98679.41
2022-09-17T17:00:54.443Z,98677.78
2022-09-17T17:03:20.962Z,98685.06
2022-09-17T17:05:47.540Z,98689.66
2022-09-17T17:08:14.721Z,98692.66
2022-09-17T17:10:41.532Z,98683.72
2022-09-17T17:13:07.941Z,98685.88
2022-09-17T17:15:34.582Z,98685.31
2022-09-17T17:18:00.992Z,98682.38
2022-09-17T17:20:27.449Z,98684.00
2022-09-17T17:22:55.220Z,98695.34
2022-09-17T17:25:23.627Z,98690.72
2022-09-17T17:27:50.339Z,98692.75
2022-09-17T17:30:17.607Z,98691.84
2022-09-17T17:32:48.694Z,98696.50
2022-09-17T17:35:15.498Z,98684.66
2022-09-17T17:37:42.113Z,98688.88
2022-09-17T17:40:10.171Z,98694.94
2022-09-17T17:42:39.391Z,98689.47
2022-09-17T17:45:07.278Z,98695.78
2022-09-17T17:47:34.256Z,98690.72
2022-09-17T17:50:00.725Z,98689.66
2022-09-17T17:52:27.947Z,98695.59
2022-09-17T17:54:54.516Z,98697.19
2022-09-17T17:57:21.058Z,98706.69
2022-09-17T17:59:47.557Z,98706.03
2022-09-17T18:02:14.157Z,98714.94
2022-09-17T18:04:40.625Z,98713.31
2022-09-17T18:07:07.747Z,98724.97
2022-09-17T18:09:34.266Z,98725.50
2022-09-17T18:12:00.715Z,98728.13
2022-09-17T18:14:27.479Z,98732.50
2022-09-17T18:16:54.383Z,98741.78
2022-09-17T18:19:20.887Z,98739.78
2022-09-17T18:21:47.364Z,98745.19
2022-09-17T18:24:13.841Z,98754.63
2022-09-17T18:26:40.338Z,98750.75
2022-09-17T18:29:08.224Z,98750.34
2022-09-17T18:31:36.039Z,98748.28
2022-09-17T18:34:11.853Z,98748.84
2022-09-17T18:36:39.619Z,98760.47
2022-09-17T18:39:44.868Z,98755.31
2022-09-17T18:41:54.794Z,98770.72
2022-09-17T18:44:22.322Z,98775.31
2022-09-17T18:46:50.183Z,98772.66
2022-09-17T18:49:17.221Z,98780.75
2022-09-17T18:51:43.736Z,98783.97
2022-09-17T18:54:12.551Z,98793.41
2022-09-17T18:56:40.243Z,98802.31
2022-09-17T18:59:08.250Z,98795.25
2022-09-17T19:01:35.608Z,98793.13
2022-09-17T19:04:02.801Z,98788.56
2022-09-17T19:06:30.441Z,98806.63
2022-09-17T19:09:00.967Z,98807.00
2022-09-17T19:11:27.888Z,98810.66
2022-09-17T19:13:54.575Z,98813.50
2022-09-17T19:16:21.112Z,98812.78
2022-09-17T19:18:47.586Z,98814.97
2022-09-17T19:21:16.630Z,98807.47
2022-09-17T19:23:45.550Z,98805.34
2022-09-17T19:26:16.248Z,98807.03
2022-09-17T19:28:42.667Z,98799.63
2022-09-17T19:31:12.538Z,98812.75
2022-09-17T19:33:39.569Z,98811.47
2022-09-17T19:36:10.462Z,98809.84
2022-09-17T19:38:37.179Z,98812.75
2022-09-17T19:41:10.585Z,98816.25
2022-09-17T19:43:37.172Z,98819.09
2022-09-17T19:46:10.208Z,98815.16
2022-09-17T19:48:37.164Z,98813.19
2022-09-17T19:51:05.213Z,98820.47
2022-09-17T19:53:33.013Z,98817.78
2022-09-17T19:55:59.826Z,98821.03
2022-09-17T19:58:26.289Z,98823.25
2022-09-17T20:00:59.794Z,98825.97
2022-09-17T20:03:26.522Z,98831.44
2022-09-17T20:06:14.061Z,98830.97
2022-09-17T20:09:06.647Z,98824.66
2022-09-17T20:11:33.094Z,98824.78
2022-09-17T20:14:06.641Z,98824.66
2022-09-17T20:16:36.133Z,98823.91
2022-09-17T20:19:02.933Z,98833.66
2022-09-17T20:21:30.142Z,98834.94
2022-09-17T20:23:57.191Z,98826.78
2022-09-17T20:26:24.103Z,98825.28
2022-09-17T20:28:51.889Z,98832.47
2022-09-17T20:31:29.545Z,98836.56
2022-09-17T20:33:58.664Z,98837.88
2022-09-17T20:36:28.135Z,98839.22
2022-09-17T20:39:11.551Z,98834.47
2022-09-17T20:41:40.425Z,98843.13
2022-09-17T20:44:07.808Z,98835.59
2022-09-17T20:46:34.648Z,98839.88
2022-09-17T20:49:01.165Z,98843.38
2022-09-17T20:51:29.740Z,98850.22
2022-09-17T20:54:01.062Z,98844.66
2022-09-17T20:56:30.390Z,98844.59
2022-09-17T20:59:03.962Z,98847.34
2022-09-17T21:01:32.867Z,98844.66
2022-09-17T21:04:01.062Z,98846.06
2022-09-17T21:06:32.482Z,98842.06
2022-09-17T21:09:02.398Z,98848.34
2022-09-17T21:11:31.407Z,98845.72
2022-09-17T21:13:59.756Z,98847.16
2022-09-17T21:16:26.543Z,98854.91
2022-09-17T21:19:01.547Z,98851.31
2022-09-17T21:21:28.361Z,98852.63
2022-09-17T21:23:54.894Z,98853.63
2022-09-17T21:26:23.474Z,98855.16
2022-09-17T21:28:51.721Z,98849.84
2022-09-17T21:31:20.571Z,98855.16
2022-09-17T21:33:48.284Z,98857.38
2022-09-17T21:36:18.558Z,98851.94
2022-09-17T21:38:45.577Z,98856.41
2022-09-17T21:41:14.927Z,98851.25
2022-09-17T21:43:43.124Z,98853.44
2022-09-17T21:46:11.911Z,98861.31
2022-09-17T21:48:46.098Z,98855.16
2022-09-17T21:51:15.085Z,98851.13
2022-09-17T21:53:41.944Z,98857.41
2022-09-17T21:56:14.167Z,98852.25
2022-09-17T21:58:41.718Z,98850.53
2022-09-17T22:01:10.869Z,98854.63
2022-09-17T22:03:37.908Z,98861.06
2022-09-17T22:06:06.675Z,98857.88
2022-09-17T22:08:34.242Z,98856.50
2022-09-17T22:11:07.444Z,98860.69
2022-09-17T22:13:34.113Z,98863.94
2022-09-17T22:16:03.342Z,98864.84
2022-09-17T22:18:30.197Z,98866.44
2022-09-17T22:20:56.908Z,98861.72
2022-09-17T22:23:23.827Z,98858.22
2022-09-17T22:26:00.588Z,98857.16
2022-09-17T22:28:27.605Z,98860.84
2022-09-17T22:30:54.079Z,98854.00
2022-09-17T22:33:20.675Z,98867.22
2022-09-17T22:35:47.163Z,98864.03
2022-09-17T22:38:13.617Z,98856.94
2022-09-17T22:40:40.083Z,98859.13
2022-09-17T22:43:06.677Z,98854.50
2022-09-17T22:45:33.109Z,98858.16
2022-09-17T22:47:59.501Z,98853.25
2022-09-17T22:50:25.932Z,98852.94
2022-09-17T22:52:52.378Z,98849.59
2022-09-17T22:55:18.799Z,98854.09
2022-09-17T22:57:45.219Z,98852.88
2022-09-17T23:00:12.361Z,98848.13
2022-09-17T23:02:39.149Z,98847.31
2022-09-17T23:05:05.721Z,98855.75
2022-09-17T23:07:32.137Z,98853.94
2022-09-17T23:09:58.624Z,98846.19
2022-09-17T23:12:25.029Z,98849.78
2022-09-17T23:14:51.479Z,98847.75
2022-09-17T23:17:17.935Z,98845.06
2022-09-17T23:19:44.382Z,98841.84
2022-09-17T23:22:10.883Z,98845.69
2022-09-17T23:24:37.799Z,98846.53
2022-09-17T23:27:04.424Z,98844.78
2022-09-17T23:29:30.927Z,98850.41
2022-09-17T23:31:57.345Z,98855.78
2022-09-17T23:34:23.768Z,98843.72
2022-09-17T23:36:50.278Z,98847.19
2022-09-17T23:39:16.741Z,98845.00
2022-09-17T23:41:44.849Z,98845.66
2022-09-17T23:44:15.627Z,98848.28
2022-09-17T23:46:43.872Z,98851.72
2022-09-17T23:49:10.958Z,98851.22
2022-09-17T23:51:37.461Z,98849.41
2022-09-17T23:54:07.494Z,98854.16
2022-09-17T23:56:35.140Z,98853.34
2022-09-17T23:59:02.133Z,98854.63
